Dallas, Texas
Traffic Map
Current Weather Conditions
Dallas, Texas
Broken Clouds
Broken Clouds
25°
Feels Like: 26°
Wind Chill: 25° Ceiling: 25000
Heat Index: 26° Visibility: 10mi
Dew Point: 18° Wind: 9mph
Humidity: 64% Direction: 190° (S)
Pressure: 29.83in Gusts: 0mph
Raw Report DataKDAL 242253Z 19008KT 10SM FEW030 SCT060 SCT120 BKN250 25/18 A2983 RMK AO2 SLP096 T02500178
Traffic Incident Summary
Active as of:
Severity:
Category:
InformationThere was an issue retrieving the traffic information for this location. Please try a different location or try again shortly.
Advertisements
Track Severe Weather on mobile